Time;durP1;ratioP1;P1;durP2;ratioP2;P2;SDS_P1;SDS_P2;PMS_P1;PMS_P2;Temp;Humidity;BMP_temperature;BMP_pressure;BME280_temperature;BME280_humidity;BME280_pressure;Samples;Min_cycle;Max_cycle;Signal;HPM_P1;HPM_P2
2022/11/04 00:00:21;;;;;;;2.00;0.80;;;11.10;99.90;;;;;;4948766;28;20041;-81
2022/11/04 00:02:46;;;;;;;5.50;0.50;;;11.10;99.90;;;;;;4954064;28;20428;-81
2022/11/04 00:05:12;;;;;;;1.10;0.80;;;11.10;99.90;;;;;;4948537;28;20035;-81
2022/11/04 00:12:23;;;;;;;1.10;0.90;;;11.00;99.90;;;;;;4950917;28;20046;-80
2022/11/04 00:13:07;;;;;;;3.72;0.82;;;10.90;99.90;;;;;;4977935;28;20030;-80
2022/11/04 00:18:20;;;;;;;0.65;0.52;;;10.90;99.90;;;;;;4968595;28;20038;-80
2022/11/04 00:28:58;;;;;;;0.85;0.43;;;10.60;99.90;;;;;;4951569;28;20029;-79
2022/11/04 00:34:22;;;;;;;1.15;0.90;;;10.60;99.90;;;;;;4875756;29;20110;-81
2022/11/04 00:36:48;;;;;;;0.70;0.50;;;10.60;99.90;;;;;;4832305;28;20045;-81
2022/11/04 00:39:13;;;;;;;1.15;0.85;;;10.60;99.90;;;;;;4956382;28;20452;-80
2022/11/04 00:41:39;;;;;;;2.08;0.60;;;10.50;99.90;;;;;;4955271;28;20063;-80
2022/11/04 00:44:05;;;;;;;1.73;0.85;;;10.40;99.90;;;;;;4977698;28;20446;-80
2022/11/04 00:46:31;;;;;;;0.90;0.55;;;10.60;99.90;;;;;;4950938;28;20059;-80
2022/11/04 00:48:57;;;;;;;1.17;0.52;;;10.50;99.90;;;;;;4948884;28;20054;-79
2022/11/04 00:51:23;;;;;;;2.88;0.70;;;10.50;99.90;;;;;;4936939;28;20466;-80
2022/11/04 00:53:49;;;;;;;1.02;0.68;;;10.50;99.90;;;;;;4971172;28;20041;-79
2022/11/04 00:56:15;;;;;;;0.75;0.70;;;10.50;99.90;;;;;;4953672;28;20948;-80
2022/11/04 00:58:41;;;;;;;3.13;1.00;;;10.50;99.90;;;;;;4958661;28;20034;-80
2022/11/04 01:01:10;;;;;;;1.55;0.88;;;10.50;99.90;;;;;;4937680;28;20124;-79
2022/11/04 01:03:36;;;;;;;2.33;0.60;;;10.50;99.90;;;;;;4954465;28;20065;-79
2022/11/04 01:06:02;;;;;;;3.83;0.70;;;10.50;99.90;;;;;;4938985;28;20486;-80
2022/11/04 01:08:27;;;;;;;1.42;0.77;;;10.40;99.90;;;;;;4937162;28;20023;-79
2022/11/04 01:10:53;;;;;;;2.25;0.65;;;10.50;99.90;;;;;;4951178;28;20022;-79
2022/11/04 01:13:19;;;;;;;10.50;0.90;;;10.50;99.90;;;;;;4953948;28;20035;-80
2022/11/04 01:15:44;;;;;;;1.00;0.88;;;10.50;99.90;;;;;;4948409;28;20031;-79
2022/11/04 01:18:11;;;;;;;1.58;0.70;;;10.50;99.90;;;;;;4985748;28;20034;-79
2022/11/04 01:20:36;;;;;;;1.40;1.00;;;10.50;99.90;;;;;;4965839;28;20035;-79
2022/11/04 01:23:02;;;;;;;1.48;1.05;;;10.60;99.90;;;;;;4953351;28;20505;-79
2022/11/04 01:25:27;;;;;;;1.70;0.80;;;10.50;99.90;;;;;;4937283;28;20097;-79
2022/11/04 01:27:54;;;;;;;2.40;0.73;;;10.50;99.90;;;;;;4935052;28;20135;-79
2022/11/04 01:30:20;;;;;;;1.98;1.02;;;10.60;99.90;;;;;;4982415;28;20041;-79
2022/11/04 01:32:45;;;;;;;1.00;0.95;;;10.60;99.90;;;;;;4938505;28;20726;-79
2022/11/04 01:35:11;;;;;;;2.45;1.35;;;10.50;99.90;;;;;;4944398;28;20052;-79
2022/11/04 01:37:36;;;;;;;1.20;1.10;;;10.50;99.90;;;;;;4967710;28;20058;-79
2022/11/04 01:40:02;;;;;;;2.05;1.80;;;10.50;99.90;;;;;;4966058;28;20039;-79
2022/11/04 01:42:28;;;;;;;1.92;1.20;;;10.60;99.90;;;;;;4967315;28;20035;-79
2022/11/04 01:44:54;;;;;;;4.82;1.88;;;10.50;99.90;;;;;;4946681;28;20027;-79
2022/11/04 01:47:29;;;;;;;1.83;1.20;;;10.50;99.90;;;;;;4947489;28;20807;-79
2022/11/04 01:50:16;;;;;;;3.83;1.45;;;10.50;99.90;;;;;;4971442;28;20422;-79
2022/11/04 01:52:51;;;;;;;3.67;1.40;;;10.50;99.90;;;;;;4934244;28;20042;-79
2022/11/04 01:55:20;;;;;;;1.67;1.30;;;10.50;99.90;;;;;;4915998;28;20035;-79
2022/11/04 01:57:48;;;;;;;2.72;2.13;;;10.40;99.90;;;;;;4954402;28;20030;-79
2022/11/04 02:00:14;;;;;;;2.25;1.75;;;10.40;99.90;;;;;;4934165;28;20486;-79
2022/11/04 02:03:01;;;;;;;2.50;1.90;;;10.40;99.90;;;;;;4969452;28;20046;-79
2022/11/04 02:05:28;;;;;;;2.83;1.92;;;10.40;99.90;;;;;;4935244;28;20371;-79
2022/11/04 02:07:54;;;;;;;3.47;1.38;;;10.40;99.90;;;;;;4964432;28;20039;-79
2022/11/04 02:10:21;;;;;;;2.42;1.70;;;10.40;99.90;;;;;;4952486;28;20133;-79
2022/11/04 02:12:50;;;;;;;1.33;1.23;;;10.40;99.90;;;;;;4922443;28;20123;-79
2022/11/04 02:15:40;;;;;;;1.60;1.20;;;10.30;99.90;;;;;;4950651;28;20035;-81
2022/11/04 02:18:16;;;;;;;6.97;1.52;;;10.30;99.90;;;;;;4947617;28;20504;-79
2022/11/04 02:21:03;;;;;;;4.00;2.28;;;10.30;99.90;;;;;;4951087;28;20034;-79
2022/11/04 02:23:47;;;;;;;;;;;10.40;99.90;;;;;;4948733;28;20038;-79
2022/11/04 02:26:22;;;;;;;1.38;1.00;;;10.40;99.90;;;;;;4950324;28;20502;-78
2022/11/04 02:29:09;;;;;;;5.10;1.52;;;10.40;99.90;;;;;;4952116;28;20133;-79
2022/11/04 02:31:49;;;;;;;7.50;1.90;;;10.40;99.90;;;;;;4950416;28;20034;-80
2022/11/04 02:34:37;;;;;;;4.53;1.65;;;10.30;99.90;;;;;;4935717;28;20499;-79
2022/11/04 02:37:15;;;;;;;2.65;1.40;;;10.40;99.90;;;;;;4939161;28;20486;-79
2022/11/04 02:39:54;;;;;;;3.33;1.60;;;10.30;99.90;;;;;;4965942;28;20038;-78
2022/11/04 02:42:35;;;;;;;2.00;1.27;;;10.30;99.90;;;;;;4948710;28;20417;-79
2022/11/04 02:45:19;;;;;;;2.33;1.20;;;10.20;99.90;;;;;;4966637;28;20038;-78
2022/11/04 02:47:48;;;;;;;2.90;1.52;;;10.10;99.90;;;;;;4950874;28;20031;-79
2022/11/04 02:50:21;;;;;;;2.65;0.80;;;10.00;99.90;;;;;;4944876;28;20064;-78
2022/11/04 02:53:06;;;;;;;3.20;1.30;;;9.90;99.90;;;;;;4962311;28;20069;-79
2022/11/04 02:55:37;;;;;;;1.20;0.73;;;10.10;99.90;;;;;;4946556;28;20662;-78
2022/11/04 02:58:05;;;;;;;3.33;1.70;;;10.00;99.90;;;;;;4946809;28;20037;-79
2022/11/04 03:00:30;;;;;;;2.70;1.42;;;10.00;99.90;;;;;;4949305;28;20056;-79
2022/11/04 03:03:03;;;;;;;1.90;1.10;;;10.10;99.90;;;;;;4923830;28;20132;-79
2022/11/04 03:05:36;;;;;;;4.00;1.50;;;10.00;99.90;;;;;;4967378;28;20118;-78
2022/11/04 03:08:04;;;;;;;1.38;0.90;;;10.00;99.90;;;;;;4956239;28;20034;-78
2022/11/04 03:10:43;;;;;;;3.17;1.02;;;10.00;99.90;;;;;;4950421;28;20046;-80
2022/11/04 03:13:16;;;;;;;7.93;1.33;;;10.00;99.90;;;;;;4948702;28;20034;-79
2022/11/04 03:15:48;;;;;;;3.33;1.00;;;9.90;99.90;;;;;;4947294;28;20039;-80
2022/11/04 03:18:22;;;;;;;3.08;0.60;;;9.90;99.90;;;;;;4949270;28;20399;-78
2022/11/04 03:20:48;;;;;;;3.30;0.82;;;9.90;99.90;;;;;;4951877;28;20027;-78
2022/11/04 03:23:19;;;;;;;1.23;0.43;;;9.80;99.90;;;;;;4952463;28;20054;-79
2022/11/04 03:25:45;;;;;;;2.50;1.05;;;9.80;99.90;;;;;;4966555;28;20126;-79
2022/11/04 03:28:25;;;;;;;1.20;0.77;;;9.90;99.90;;;;;;4939155;28;20402;-79
2022/11/04 03:30:51;;;;;;;2.35;0.77;;;9.70;99.90;;;;;;4935522;28;20109;-78
2022/11/04 03:33:33;;;;;;;2.20;0.55;;;9.70;99.90;;;;;;4936438;28;20515;-78
2022/11/04 03:35:58;;;;;;;4.60;1.20;;;9.70;99.90;;;;;;4941674;28;20033;-78
2022/11/04 03:38:24;;;;;;;2.83;0.98;;;9.70;99.90;;;;;;4950326;28;20035;-78
2022/11/04 03:40:50;;;;;;;0.95;0.40;;;9.70;99.90;;;;;;4952936;28;20034;-78
2022/11/04 03:43:26;;;;;;;1.38;0.93;;;9.70;99.90;;;;;;4949902;28;20407;-78
2022/11/04 03:45:52;;;;;;;6.70;1.02;;;9.70;99.90;;;;;;4973642;28;20031;-78
2022/11/04 03:48:18;;;;;;;2.45;0.90;;;9.60;99.90;;;;;;4945887;28;20035;-78
2022/11/04 03:50:46;;;;;;;10.95;2.08;;;9.50;99.90;;;;;;4937616;28;20044;-79
2022/11/04 03:53:12;;;;;;;1.35;1.05;;;9.60;99.90;;;;;;4949078;28;20109;-78
2022/11/04 03:55:40;;;;;;;6.40;1.42;;;9.50;99.90;;;;;;4949390;28;20586;-79
2022/11/04 03:58:47;;;;;;;3.80;1.35;;;9.60;99.90;;;;;;4966727;28;20027;-80
2022/11/04 04:01:37;;;;;;;3.83;1.17;;;9.50;99.90;;;;;;4951376;28;20082;-78
2022/11/04 04:04:26;;;;;;;3.50;1.42;;;9.50;99.90;;;;;;4936177;28;20498;-78
2022/11/04 04:06:54;;;;;;;2.83;1.00;;;9.40;99.90;;;;;;4970427;28;20027;-78
2022/11/04 04:09:21;;;;;;;2.00;1.10;;;9.40;99.90;;;;;;4950477;28;20046;-78
2022/11/04 04:12:00;;;;;;;3.20;1.00;;;9.40;99.90;;;;;;4953640;28;20465;-78
2022/11/04 04:14:39;;;;;;;2.72;0.88;;;9.40;99.90;;;;;;4968609;28;20411;-78
2022/11/04 04:17:33;;;;;;;5.10;0.93;;;9.40;99.90;;;;;;4968526;28;20039;-78
2022/11/04 04:20:19;;;;;;;1.65;0.75;;;9.40;99.90;;;;;;4969912;28;20039;-78
2022/11/04 04:28:49;;;;;;;5.15;1.77;;;9.40;99.90;;;;;;4944920;28;20084;-79
2022/11/04 04:31:48;;;;;;;3.17;1.10;;;9.30;99.90;;;;;;4956206;28;20027;-78
2022/11/04 04:34:06;;;;;;;2.88;1.20;;;9.40;99.90;;;;;;4954758;28;20027;-78
2022/11/04 04:36:33;;;;;;;7.72;1.60;;;9.30;99.90;;;;;;4966556;28;20380;-79
2022/11/04 04:47:20;;;;;;;4.45;0.98;;;9.20;99.90;;;;;;4955113;28;20057;-79
2022/11/04 04:49:52;;;;;;;3.20;0.70;;;9.20;99.90;;;;;;4967979;28;20090;-79
2022/11/04 04:52:18;;;;;;;3.78;1.45;;;9.10;99.90;;;;;;4954881;28;20023;-78
2022/11/04 04:54:44;;;;;;;8.20;2.22;;;9.10;99.90;;;;;;4952268;28;20549;-79
2022/11/04 04:57:09;;;;;;;5.65;1.30;;;8.90;99.90;;;;;;4968981;28;20027;-79
2022/11/04 04:59:35;;;;;;;4.05;0.98;;;9.10;99.90;;;;;;4954339;28;20039;-78
2022/11/04 05:02:00;;;;;;;12.43;1.30;;;9.10;99.90;;;;;;4967541;28;20067;-79
2022/11/04 05:04:26;;;;;;;6.05;1.10;;;9.10;99.90;;;;;;4977819;28;20384;-80
2022/11/04 05:06:51;;;;;;;5.95;1.00;;;9.00;99.90;;;;;;4966716;28;20032;-78
2022/11/04 05:09:17;;;;;;;6.68;1.52;;;9.00;99.90;;;;;;4968608;28;20031;-80
2022/11/04 05:11:43;;;;;;;5.88;1.40;;;9.00;99.90;;;;;;4937508;28;20035;-78
2022/11/04 05:14:15;;;;;;;4.82;1.13;;;9.00;99.90;;;;;;4955278;28;20027;-79
2022/11/04 05:16:41;;;;;;;1.60;0.70;;;9.00;99.90;;;;;;4935346;28;20042;-79
2022/11/04 05:19:07;;;;;;;4.28;1.02;;;9.00;99.90;;;;;;4968375;28;20027;-79
2022/11/04 05:21:32;;;;;;;5.95;1.25;;;9.00;99.90;;;;;;4963762;28;20027;-78
2022/11/04 05:23:58;;;;;;;4.10;1.15;;;9.00;99.90;;;;;;4939137;28;20049;-78
2022/11/04 05:26:23;;;;;;;6.82;1.50;;;9.00;99.90;;;;;;4962400;28;20063;-78
2022/11/04 05:28:49;;;;;;;7.60;1.33;;;9.00;99.90;;;;;;4955673;28;20192;-78
2022/11/04 05:31:14;;;;;;;8.90;1.60;;;8.90;99.90;;;;;;4965507;28;20502;-78
2022/11/04 05:33:40;;;;;;;4.60;1.08;;;8.80;99.90;;;;;;4966258;28;20031;-80
2022/11/04 05:36:10;;;;;;;3.83;1.00;;;8.70;99.90;;;;;;4952277;28;20126;-78
2022/11/04 05:38:35;;;;;;;11.05;1.33;;;8.90;99.90;;;;;;4953447;28;20058;-79
2022/11/04 05:41:01;;;;;;;6.57;1.65;;;8.90;99.90;;;;;;4967084;28;20112;-78
2022/11/04 05:43:27;;;;;;;5.03;0.90;;;8.90;99.90;;;;;;4947575;28;20039;-78
2022/11/04 05:45:53;;;;;;;5.40;1.30;;;8.80;99.90;;;;;;4937960;28;20097;-79
2022/11/04 05:48:19;;;;;;;7.60;1.15;;;8.90;99.90;;;;;;4955813;28;20110;-79
2022/11/04 05:50:45;;;;;;;5.22;0.98;;;9.10;99.90;;;;;;4953775;28;20039;-79
2022/11/04 05:53:10;;;;;;;6.55;1.30;;;8.90;99.90;;;;;;4953924;28;20885;-80
2022/11/04 05:55:36;;;;;;;4.40;1.25;;;8.80;99.90;;;;;;4945567;28;20430;-79
2022/11/04 05:58:01;;;;;;;4.22;1.15;;;8.80;99.90;;;;;;4952150;28;20027;-79
2022/11/04 06:00:29;;;;;;;5.63;1.20;;;8.80;99.90;;;;;;4944220;28;20077;-78
2022/11/04 06:02:58;;;;;;;5.38;1.02;;;8.80;99.90;;;;;;4963485;28;20067;-79
2022/11/04 06:05:24;;;;;;;5.28;1.65;;;8.80;99.90;;;;;;4943708;28;20035;-79
2022/11/04 06:07:49;;;;;;;8.98;1.27;;;8.80;99.90;;;;;;4949777;28;20042;-78
2022/11/04 06:10:15;;;;;;;6.47;1.13;;;8.80;99.90;;;;;;4965959;28;20031;-79
2022/11/04 06:12:41;;;;;;;4.93;1.38;;;8.80;99.90;;;;;;4935000;28;20085;-79
2022/11/04 06:15:07;;;;;;;3.30;1.05;;;8.60;99.90;;;;;;4935206;28;20039;-79
2022/11/04 06:17:32;;;;;;;5.22;1.67;;;8.70;99.90;;;;;;4953687;28;20043;-79
2022/11/04 06:19:58;;;;;;;10.10;1.13;;;8.60;99.90;;;;;;4932066;28;20035;-79
2022/11/04 06:22:23;;;;;;;3.28;1.13;;;8.70;99.90;;;;;;4939987;28;20070;-78
2022/11/04 06:24:49;;;;;;;4.32;1.25;;;8.70;99.90;;;;;;4953685;28;20467;-78
2022/11/04 06:27:15;;;;;;;2.20;1.30;;;8.80;99.90;;;;;;4951744;28;20035;-78
2022/11/04 06:29:40;;;;;;;5.10;1.30;;;9.00;99.90;;;;;;4948344;28;20051;-79
2022/11/04 06:32:07;;;;;;;3.10;1.00;;;8.90;99.90;;;;;;4963620;28;20038;-79
2022/11/04 06:34:32;;;;;;;6.22;1.27;;;8.80;99.90;;;;;;4956090;28;20486;-79
2022/11/04 06:36:58;;;;;;;5.07;1.50;;;8.70;99.90;;;;;;4936792;28;20037;-79
2022/11/04 06:39:24;;;;;;;7.97;1.70;;;8.70;99.90;;;;;;4953491;28;20057;-78
2022/11/04 06:41:49;;;;;;;6.32;1.23;;;8.60;99.90;;;;;;4965942;28;20564;-80
2022/11/04 06:44:15;;;;;;;6.18;1.58;;;8.50;99.90;;;;;;4965718;28;20039;-79
2022/11/04 06:46:41;;;;;;;7.70;1.30;;;8.50;99.90;;;;;;4933752;28;20086;-76
2022/11/04 06:49:10;;;;;;;10.15;1.33;;;8.50;99.90;;;;;;4947884;28;20042;-76
2022/11/04 06:51:35;;;;;;;3.95;1.88;;;8.60;99.90;;;;;;4967759;28;20034;-77
2022/11/04 06:54:01;;;;;;;4.10;1.20;;;8.60;99.90;;;;;;4930811;28;20084;-77
2022/11/04 06:56:26;;;;;;;7.38;2.20;;;8.50;99.90;;;;;;4976968;28;20031;-77
2022/11/04 06:58:53;;;;;;;9.00;2.70;;;8.50;99.90;;;;;;4948035;28;20435;-78
2022/11/04 07:01:19;;;;;;;6.28;1.95;;;8.50;99.90;;;;;;4932762;28;20745;-77
2022/11/04 07:03:51;;;;;;;15.40;1.95;;;8.50;99.90;;;;;;4948807;28;20043;-77
2022/11/04 07:06:16;;;;;;;9.95;2.05;;;8.50;99.90;;;;;;4947478;28;20043;-77
2022/11/04 07:08:42;;;;;;;13.57;2.35;;;8.50;99.90;;;;;;4963740;28;20081;-77
2022/11/04 07:11:08;;;;;;;9.18;2.25;;;8.50;99.90;;;;;;4961803;28;20110;-77
2022/11/04 07:13:33;;;;;;;11.43;1.95;;;8.60;99.90;;;;;;4946166;28;20073;-77
2022/11/04 07:15:59;;;;;;;6.75;1.40;;;8.70;99.90;;;;;;4950385;28;20030;-77
2022/11/04 07:18:25;;;;;;;4.90;1.10;;;8.60;99.90;;;;;;4966716;28;20129;-77
2022/11/04 07:21:07;;;;;;;3.72;1.50;;;8.70;99.90;;;;;;4953020;28;20569;-78
2022/11/04 07:23:32;;;;;;;8.98;2.53;;;8.80;99.90;;;;;;4965636;28;20459;-77
2022/11/04 07:26:01;;;;;;;5.43;1.52;;;8.80;99.90;;;;;;4932768;28;20029;-77
2022/11/04 07:28:36;;;;;;;6.47;1.42;;;8.90;99.90;;;;;;4932164;28;20059;-78
2022/11/04 07:31:02;;;;;;;9.32;1.80;;;8.90;99.90;;;;;;4938860;28;20566;-80
2022/11/04 07:33:27;;;;;;;9.15;1.90;;;9.00;99.90;;;;;;4955856;28;20130;-77
2022/11/04 07:35:53;;;;;;;4.88;1.42;;;9.00;99.90;;;;;;4938570;28;20767;-80
2022/11/04 07:38:26;;;;;;;4.35;1.15;;;9.10;99.90;;;;;;4956728;28;22491;-77
2022/11/04 07:40:51;;;;;;;3.20;1.40;;;9.10;99.90;;;;;;4955727;28;20027;-77
2022/11/04 07:43:20;;;;;;;3.13;1.50;;;9.20;99.90;;;;;;4949794;28;20489;-78
2022/11/04 07:45:45;;;;;;;9.40;2.22;;;9.20;99.90;;;;;;4958765;28;20035;-77
2022/11/04 07:48:11;;;;;;;5.53;1.20;;;9.20;99.90;;;;;;4967938;28;20031;-77
2022/11/04 07:50:39;;;;;;;8.75;2.03;;;9.20;99.90;;;;;;4950947;28;20097;-77
2022/11/04 07:53:05;;;;;;;4.93;1.40;;;9.30;99.90;;;;;;4952363;28;20038;-77
2022/11/04 07:55:30;;;;;;;3.83;1.27;;;9.30;99.90;;;;;;4961459;28;20035;-80
2022/11/04 07:57:56;;;;;;;3.90;1.88;;;9.40;99.90;;;;;;4970844;28;20030;-77
2022/11/04 08:00:21;;;;;;;7.18;2.60;;;9.40;99.90;;;;;;4949784;28;22109;-77
2022/11/04 08:02:47;;;;;;;10.15;2.17;;;9.40;99.90;;;;;;4954072;28;20124;-78
2022/11/04 08:05:13;;;;;;;7.10;1.63;;;9.40;99.90;;;;;;4965116;28;20142;-77
2022/11/04 08:07:39;;;;;;;5.63;1.60;;;9.40;99.90;;;;;;4948101;28;20034;-77
2022/11/04 08:10:05;;;;;;;1.67;1.10;;;9.50;99.90;;;;;;4953223;28;20041;-77
2022/11/04 08:12:31;;;;;;;7.15;1.40;;;9.50;99.90;;;;;;4936187;28;20394;-79
2022/11/04 08:14:57;;;;;;;7.18;1.70;;;9.50;99.90;;;;;;4952604;28;20031;-80
2022/11/04 08:17:23;;;;;;;5.57;1.30;;;9.50;99.90;;;;;;4953339;28;20036;-80
2022/11/04 08:19:48;;;;;;;5.28;1.63;;;9.60;99.90;;;;;;4960701;28;20117;-80
2022/11/04 08:22:14;;;;;;;7.65;3.25;;;9.60;99.90;;;;;;4947156;28;20131;-80
2022/11/04 08:24:40;;;;;;;5.90;1.92;;;9.60;99.90;;;;;;4929699;28;20038;-80
2022/11/04 08:27:08;;;;;;;10.07;1.92;;;9.70;99.90;;;;;;4947873;28;20439;-80
2022/11/04 08:29:34;;;;;;;5.97;1.58;;;9.70;99.90;;;;;;4967586;28;20031;-77
2022/11/04 08:32:00;;;;;;;8.95;2.03;;;9.80;99.90;;;;;;4935750;28;20035;-77
2022/11/04 08:34:26;;;;;;;5.43;2.05;;;9.80;99.90;;;;;;4952640;28;20036;-78
2022/11/04 08:36:52;;;;;;;6.85;1.77;;;9.90;99.90;;;;;;4945210;28;20027;-77
2022/11/04 08:39:18;;;;;;;4.30;1.50;;;9.90;99.90;;;;;;4948745;28;20038;-77
2022/11/04 08:41:44;;;;;;;11.18;1.95;;;9.90;99.90;;;;;;4949859;28;20050;-78
2022/11/04 08:44:11;;;;;;;9.15;1.50;;;9.90;99.90;;;;;;4953622;28;20496;-77
2022/11/04 08:46:38;;;;;;;3.50;1.30;;;10.00;99.90;;;;;;4930196;28;20071;-78
2022/11/04 08:49:04;;;;;;;5.20;1.55;;;10.00;99.90;;;;;;4948066;28;20030;-78
2022/11/04 08:51:30;;;;;;;8.05;1.80;;;10.00;99.90;;;;;;4937004;28;20034;-79
2022/11/04 08:53:56;;;;;;;5.57;1.38;;;10.10;99.90;;;;;;4941680;28;20031;-77
2022/11/04 08:56:33;;;;;;;5.88;1.42;;;10.10;99.90;;;;;;4969457;28;20078;-78
2022/11/04 08:58:58;;;;;;;6.75;1.80;;;10.10;99.90;;;;;;4933488;28;20509;-78
2022/11/04 09:01:25;;;;;;;5.75;1.58;;;10.10;99.90;;;;;;4951926;28;20054;-78
2022/11/04 09:03:50;;;;;;;4.22;1.60;;;10.20;99.90;;;;;;4980384;28;20116;-78
2022/11/04 09:06:27;;;;;;;9.20;1.67;;;10.20;99.90;;;;;;4932094;28;20382;-79
2022/11/04 09:09:00;;;;;;;3.03;1.33;;;10.20;99.90;;;;;;4968234;28;20365;-79
2022/11/04 09:11:33;;;;;;;3.50;1.33;;;10.20;99.90;;;;;;4951992;28;20026;-79
2022/11/04 09:14:00;;;;;;;6.22;1.77;;;10.30;99.90;;;;;;4953768;28;20409;-79
2022/11/04 09:16:25;;;;;;;8.40;1.73;;;10.40;99.90;;;;;;4953966;28;20092;-79
2022/11/04 09:18:51;;;;;;;8.93;1.50;;;10.40;99.90;;;;;;4935390;28;20030;-79
2022/11/04 09:21:17;;;;;;;6.18;1.63;;;10.50;99.90;;;;;;4947651;28;20414;-79
2022/11/04 09:23:43;;;;;;;8.13;2.53;;;10.50;99.90;;;;;;4971416;28;20037;-79
2022/11/04 09:26:11;;;;;;;8.90;2.13;;;10.60;99.90;;;;;;4952077;28;20035;-79
2022/11/04 09:28:37;;;;;;;9.18;2.15;;;10.70;99.90;;;;;;4944080;28;20597;-79
2022/11/04 09:31:10;;;;;;;11.68;2.25;;;10.60;99.90;;;;;;4935383;28;20110;-79
2022/11/04 09:33:36;;;;;;;7.43;1.30;;;10.80;99.90;;;;;;4937960;28;20043;-80
2022/11/04 09:36:02;;;;;;;4.03;1.40;;;10.60;99.90;;;;;;4932480;28;20177;-79
2022/11/04 09:38:28;;;;;;;12.05;1.90;;;10.80;99.90;;;;;;4916805;28;20107;-79
2022/11/04 09:40:53;;;;;;;4.97;1.65;;;10.90;99.90;;;;;;4936166;28;20034;-79
2022/11/04 09:43:56;;;;;;;5.55;1.10;;;10.90;99.90;;;;;;4949879;28;20047;-80
2022/11/04 09:46:22;;;;;;;9.00;2.63;;;10.90;99.90;;;;;;4950438;28;20038;-79
2022/11/04 09:48:49;;;;;;;7.05;1.70;;;10.90;99.90;;;;;;4955863;28;20042;-79
2022/11/04 09:51:19;;;;;;;5.97;1.45;;;11.00;99.90;;;;;;4965430;28;20061;-80
2022/11/04 09:53:47;;;;;;;2.78;1.15;;;11.00;99.90;;;;;;4965609;28;20529;-79
2022/11/04 09:56:20;;;;;;;8.70;1.80;;;11.10;99.90;;;;;;4939311;28;20464;-79
2022/11/04 09:58:45;;;;;;;10.15;2.65;;;11.10;99.90;;;;;;4954050;28;20031;-79
2022/11/04 10:01:16;;;;;;;4.68;2.00;;;11.10;99.90;;;;;;4933989;28;21173;-79
2022/11/04 10:03:48;;;;;;;2.55;1.30;;;11.20;99.90;;;;;;4935319;28;20039;-79
2022/11/04 10:06:46;;;;;;;4.35;1.27;;;11.30;99.90;;;;;;4954710;28;20499;-79
2022/11/04 10:09:38;;;;;;;8.68;1.60;;;11.40;99.90;;;;;;4961434;28;20035;-79
2022/11/04 10:12:28;;;;;;;3.40;1.33;;;11.60;99.90;;;;;;4927965;28;20368;-79
2022/11/04 10:15:29;;;;;;;6.10;1.10;;;11.70;99.90;;;;;;4968291;28;20390;-79
2022/11/04 10:18:10;;;;;;;3.45;1.08;;;11.80;99.90;;;;;;4965551;28;20050;-79
2022/11/04 10:20:54;;;;;;;3.17;1.08;;;11.90;99.90;;;;;;4936655;28;20487;-80
2022/11/04 10:23:39;;;;;;;3.90;0.88;;;12.10;99.90;;;;;;4946509;28;20039;-78
2022/11/04 10:26:18;;;;;;;8.18;1.60;;;12.10;99.90;;;;;;4952771;28;20402;-79
2022/11/04 10:28:55;;;;;;;4.32;1.48;;;12.30;99.90;;;;;;4946014;28;20359;-79
2022/11/04 10:31:20;;;;;;;4.97;1.20;;;12.30;99.90;;;;;;4935480;28;20046;-79
2022/11/04 10:33:51;;;;;;;7.78;1.25;;;12.50;99.90;;;;;;4951653;28;20038;-80
2022/11/04 10:36:17;;;;;;;3.25;1.17;;;12.70;99.90;;;;;;4964330;28;20055;-80
2022/11/04 10:38:54;;;;;;;6.53;1.35;;;13.00;99.90;;;;;;4950961;28;20027;-80
2022/11/04 10:41:23;;;;;;;3.13;1.27;;;13.20;99.90;;;;;;4936306;28;20041;-81
2022/11/04 10:43:50;;;;;;;2.90;1.10;;;13.20;99.90;;;;;;4951384;28;20034;-80
2022/11/04 10:46:24;;;;;;;4.18;1.30;;;13.20;99.90;;;;;;4964098;28;20145;-80
2022/11/04 10:49:00;;;;;;;11.05;1.45;;;13.10;99.90;;;;;;4969593;28;20401;-79
2022/11/04 10:51:26;;;;;;;4.88;1.20;;;13.30;99.90;;;;;;4959227;28;20740;-79
2022/11/04 10:53:56;;;;;;;3.08;1.33;;;13.50;99.90;;;;;;4949216;28;20066;-81
2022/11/04 10:56:27;;;;;;;4.80;1.25;;;13.50;99.90;;;;;;4952423;28;20035;-80
2022/11/04 10:58:54;;;;;;;1.92;1.02;;;13.60;99.90;;;;;;4963544;28;20042;-80
2022/11/04 11:01:24;;;;;;;3.78;1.38;;;13.50;99.90;;;;;;4953562;28;20053;-79
2022/11/04 11:03:50;;;;;;;4.15;1.02;;;13.60;99.90;;;;;;4965085;28;20043;-79
2022/11/04 11:06:25;;;;;;;7.18;1.83;;;13.40;99.90;;;;;;4945589;28;20407;-79
2022/11/04 11:08:53;;;;;;;8.93;2.40;;;13.30;99.90;;;;;;4935987;28;20034;-80
2022/11/04 11:11:37;;;;;;;7.20;1.83;;;13.30;99.90;;;;;;4935930;28;20038;-79
2022/11/04 11:14:02;;;;;;;5.70;1.30;;;13.20;99.90;;;;;;4944026;28;20378;-80
2022/11/04 11:16:30;;;;;;;7.45;1.15;;;13.40;99.90;;;;;;4962076;28;20035;-80
2022/11/04 11:19:11;;;;;;;5.60;1.83;;;13.50;99.90;;;;;;4963192;28;20085;-80
2022/11/04 11:21:54;;;;;;;6.35;1.20;;;13.60;99.90;;;;;;4951811;28;20043;-80
2022/11/04 11:24:21;;;;;;;4.53;1.00;;;13.90;99.90;;;;;;4929604;28;20024;-79
2022/11/04 11:26:49;;;;;;;3.53;0.80;;;14.10;99.90;;;;;;4950635;28;20037;-79
2022/11/04 11:29:22;;;;;;;6.53;1.52;;;13.90;99.90;;;;;;4951039;28;20382;-81
2022/11/04 11:31:47;;;;;;;8.38;1.48;;;14.10;99.90;;;;;;4932740;28;20039;-80
2022/11/04 11:34:25;;;;;;;4.85;1.08;;;14.10;99.90;;;;;;4949724;28;20396;-80
2022/11/04 11:36:51;;;;;;;2.13;1.02;;;14.10;99.90;;;;;;4948444;28;20125;-80
2022/11/04 11:39:20;;;;;;;4.20;1.10;;;14.10;99.90;;;;;;4956956;28;20043;-80
2022/11/04 11:41:57;;;;;;;2.20;0.82;;;14.00;99.90;;;;;;4930430;28;20074;-81
2022/11/04 11:44:46;;;;;;;8.23;1.30;;;14.00;99.90;;;;;;4946773;28;20114;-81
2022/11/04 11:47:35;;;;;;;3.67;1.00;;;14.20;99.90;;;;;;4945779;28;20035;-78
2022/11/04 11:50:17;;;;;;;6.05;1.10;;;14.20;99.90;;;;;;4947670;28;20027;-79
2022/11/04 11:52:44;;;;;;;2.67;1.00;;;14.10;99.90;;;;;;4939680;28;20043;-78
2022/11/04 11:55:34;;;;;;;1.77;0.98;;;14.20;99.90;;;;;;4964856;28;20035;-80
2022/11/04 11:58:15;;;;;;;4.47;1.05;;;14.20;99.90;;;;;;4918286;28;20494;-81
2022/11/04 12:01:03;;;;;;;2.13;1.02;;;14.20;99.90;;;;;;4964046;28;20139;-80
2022/11/04 12:03:42;;;;;;;5.95;1.35;;;14.20;99.90;;;;;;4960621;28;20510;-81
2022/11/04 12:06:21;;;;;;;3.88;0.70;;;14.20;99.90;;;;;;4931417;28;20027;-80
2022/11/04 12:09:23;;;;;;;3.10;0.95;;;14.10;99.90;;;;;;4947413;28;20528;-80
2022/11/04 12:12:03;;;;;;;3.40;1.10;;;14.10;99.90;;;;;;4933102;28;20501;-80
2022/11/04 12:14:46;;;;;;;5.28;1.17;;;14.00;99.90;;;;;;4939877;28;20033;-80
2022/11/04 12:17:24;;;;;;;1.83;0.90;;;14.10;99.90;;;;;;4935720;28;20485;-80
2022/11/04 12:20:04;;;;;;;4.70;0.90;;;14.00;99.90;;;;;;4959700;28;20039;-81
2022/11/04 12:22:35;;;;;;;2.65;1.02;;;14.10;99.90;;;;;;4950667;28;20039;-81
2022/11/04 12:25:10;;;;;;;2.90;1.13;;;14.10;99.90;;;;;;4948650;28;20493;-80
2022/11/04 12:27:57;;;;;;;7.57;1.67;;;14.10;99.90;;;;;;4946026;28;20039;-82
2022/11/04 12:30:26;;;;;;;5.05;1.05;;;14.00;99.90;;;;;;4967600;28;20267;-81
2022/11/04 12:33:13;;;;;;;7.28;1.35;;;14.10;99.90;;;;;;4943936;28;20509;-81
2022/11/04 12:35:57;;;;;;;6.13;1.63;;;14.00;99.90;;;;;;4967346;28;20445;-81
2022/11/04 12:38:27;;;;;;;4.90;1.20;;;13.90;99.90;;;;;;4947285;28;20031;-80
2022/11/04 12:41:20;;;;;;;1.95;0.60;;;13.90;99.90;;;;;;4939484;28;20118;-80
2022/11/04 12:43:51;;;;;;;4.38;1.40;;;13.90;99.90;;;;;;4952002;28;20047;-81
2022/11/04 12:46:29;;;;;;;6.45;1.55;;;13.90;99.90;;;;;;4948605;28;20039;-80
2022/11/04 12:49:03;;;;;;;4.15;1.25;;;13.90;99.90;;;;;;4956617;28;20648;-81
2022/11/04 12:51:46;;;;;;;4.68;1.10;;;13.90;99.90;;;;;;4952011;28;20110;-81
2022/11/04 12:54:14;;;;;;;2.47;1.00;;;14.10;99.90;;;;;;4920659;28;20041;-80
2022/11/04 12:56:40;;;;;;;4.90;1.10;;;14.10;99.90;;;;;;4955600;28;20757;-81
2022/11/04 12:59:29;;;;;;;8.27;1.20;;;14.10;99.90;;;;;;4937717;28;20031;-80
2022/11/04 13:02:20;;;;;;;3.58;1.40;;;14.20;99.90;;;;;;4951852;28;20761;-80
2022/11/04 13:05:24;;;;;;;5.63;1.13;;;14.20;99.90;;;;;;4946824;28;20046;-81
2022/11/04 13:07:59;;;;;;;7.25;1.42;;;14.30;99.90;;;;;;4921942;28;20044;-81
2022/11/04 13:11:04;;;;;;;2.75;1.10;;;14.50;99.90;;;;;;4962377;28;20027;-80
2022/11/04 13:13:35;;;;;;;5.25;2.05;;;14.40;99.90;;;;;;4931777;28;20042;-81
2022/11/04 13:16:06;;;;;;;3.78;1.38;;;14.50;99.90;;;;;;4935798;28;20099;-81
2022/11/04 13:18:33;;;;;;;12.60;1.98;;;14.40;99.90;;;;;;4951550;28;20031;-80
2022/11/04 13:21:07;;;;;;;3.55;1.27;;;14.50;99.90;;;;;;4967058;28;20023;-80
2022/11/04 13:23:53;;;;;;;4.97;1.90;;;14.50;99.90;;;;;;4981143;28;20590;-80
2022/11/04 13:26:19;;;;;;;4.20;1.85;;;14.50;99.90;;;;;;4955353;28;20070;-81
2022/11/04 13:28:58;;;;;;;7.40;1.77;;;14.60;99.90;;;;;;4954750;28;20110;-80
2022/11/04 13:31:34;;;;;;;5.80;1.70;;;14.60;99.90;;;;;;4934114;28;20039;-81
2022/11/04 13:34:12;;;;;;;4.47;1.73;;;14.60;99.90;;;;;;4937945;28;20036;-81
2022/11/04 13:36:43;;;;;;;5.18;1.88;;;14.70;99.90;;;;;;4962220;28;20035;-81
2022/11/04 13:39:24;;;;;;;4.60;1.52;;;14.70;99.90;;;;;;4927288;28;20042;-78
2022/11/04 13:41:58;;;;;;;5.53;2.33;;;14.80;99.90;;;;;;4953352;28;20031;-78